createdAt,value
2018-12-19T00:04:54.452Z,100635.09
2018-12-19T00:09:57.661Z,100624.37
2018-12-19T00:15:00.892Z,100618.62
2018-12-19T00:20:18.849Z,100606.19
2018-12-19T00:25:22.098Z,100597.04
2018-12-19T00:30:25.304Z,100590.45
2018-12-19T00:35:28.577Z,100573.75
2018-12-19T00:40:31.767Z,100570.70
2018-12-19T00:45:34.946Z,100583.59
2018-12-19T00:50:38.213Z,100583.21
2018-12-19T00:55:41.434Z,100574.84
2018-12-19T01:00:44.687Z,100584.83
2018-12-19T01:05:47.885Z,100584.90
2018-12-19T01:10:51.102Z,100573.36
2018-12-19T01:15:54.285Z,100577.61
2018-12-19T01:20:57.493Z,100582.19
2018-12-19T01:26:00.669Z,100575.44
2018-12-19T01:31:03.928Z,100574.16
2018-12-19T01:36:07.119Z,100574.74
2018-12-19T01:41:10.302Z,100571.71
2018-12-19T01:46:13.520Z,100577.84
2018-12-19T01:51:16.745Z,100559.71
2018-12-19T01:56:19.969Z,100554.00
2018-12-19T02:01:23.200Z,100561.55
2018-12-19T02:06:26.368Z,100565.62
2018-12-19T02:11:29.582Z,100558.30
2018-12-19T02:16:32.784Z,100551.55
2018-12-19T02:21:35.996Z,100546.88
2018-12-19T02:26:39.213Z,100539.81
2018-12-19T02:31:42.399Z,100533.00
2018-12-19T02:36:45.606Z,100521.99
2018-12-19T02:41:48.824Z,100514.43
2018-12-19T02:46:52.020Z,100520.56
2018-12-19T02:51:55.240Z,100508.80
2018-12-19T02:56:58.450Z,100506.67
2018-12-19T03:02:01.698Z,100494.18
2018-12-19T03:07:05.013Z,100494.26
2018-12-19T03:12:08.177Z,100482.14
2018-12-19T03:17:11.381Z,100468.16
2018-12-19T03:22:14.586Z,100473.80
2018-12-19T03:27:17.798Z,100451.45
2018-12-19T03:32:21.010Z,100442.52
2018-12-19T03:37:24.185Z,100444.69
2018-12-19T03:42:27.409Z,100441.69
2018-12-19T03:47:30.630Z,100437.05
2018-12-19T03:52:33.824Z,100441.88
2018-12-19T03:57:37.360Z,100432.89
2018-12-19T04:02:40.535Z,100429.86
2018-12-19T04:07:43.729Z,100425.61
2018-12-19T04:12:46.894Z,100431.05
2018-12-19T04:17:50.109Z,100429.38
2018-12-19T04:22:53.286Z,100424.59
2018-12-19T04:27:56.489Z,100423.92
2018-12-19T04:32:59.777Z,100446.04
2018-12-19T04:38:03.004Z,100429.52
2018-12-19T04:43:06.247Z,100421.68
2018-12-19T04:48:09.440Z,100423.52
2018-12-19T04:53:14.546Z,100425.69
2018-12-19T04:58:18.006Z,100430.31
2018-12-19T05:03:21.348Z,100431.77
2018-12-19T05:08:24.584Z,100419.88
2018-12-19T05:13:27.748Z,100414.80
2018-12-19T05:18:31.055Z,100426.92
2018-12-19T05:23:34.237Z,100424.20
2018-12-19T05:28:37.416Z,100427.75
2018-12-19T05:33:40.589Z,100418.80
2018-12-19T05:38:43.788Z,100407.72
2018-12-19T05:43:46.992Z,100406.91
2018-12-19T05:48:50.292Z,100406.48
2018-12-19T05:53:53.486Z,100402.27
2018-12-19T05:58:56.653Z,100411.21
2018-12-19T06:03:59.804Z,100391.45
2018-12-19T06:09:04.133Z,100394.52
2018-12-19T06:14:07.340Z,100396.94
2018-12-19T06:19:10.571Z,100398.86
2018-12-19T06:24:13.754Z,100401.48
2018-12-19T06:29:16.936Z,100392.00
2018-12-19T06:34:20.095Z,100390.90
2018-12-19T06:39:23.410Z,100405.33
2018-12-19T06:44:26.580Z,100405.67
2018-12-19T06:49:29.753Z,100392.80
2018-12-19T06:54:32.946Z,100391.98
2018-12-19T06:59:36.172Z,100402.42
2018-12-19T07:04:39.357Z,100408.74
2018-12-19T07:09:42.598Z,100413.84
2018-12-19T07:14:46.388Z,100412.62
2018-12-19T07:19:49.859Z,100422.69
2018-12-19T07:24:53.038Z,100433.98
2018-12-19T07:29:56.214Z,100429.70
2018-12-19T07:34:59.412Z,100442.86
2018-12-19T07:40:02.918Z,100437.53
2018-12-19T07:45:06.073Z,100453.97
2018-12-19T07:50:11.041Z,100450.08
2018-12-19T07:55:14.197Z,100451.59
2018-12-19T08:00:17.470Z,100447.88
2018-12-19T08:05:25.965Z,100440.61
2018-12-19T08:10:25.901Z,100444.83
2018-12-19T08:15:29.101Z,100432.25
2018-12-19T08:20:32.272Z,100427.15
2018-12-19T08:25:35.502Z,100420.05
2018-12-19T08:30:38.709Z,100428.72
2018-12-19T08:35:41.945Z,100441.73
2018-12-19T08:40:45.144Z,100433.16
2018-12-19T08:45:48.986Z,100430.30
2018-12-19T08:50:52.174Z,100426.33
2018-12-19T08:55:55.340Z,100416.44
2018-12-19T09:00:58.511Z,100428.36
2018-12-19T09:06:01.801Z,100432.16
2018-12-19T09:11:05.849Z,100429.59
2018-12-19T09:16:09.600Z,100439.02
2018-12-19T09:21:12.852Z,100450.06
2018-12-19T09:26:16.097Z,100436.86
2018-12-19T09:31:19.452Z,100443.42
2018-12-19T09:36:22.604Z,100432.05
2018-12-19T09:41:25.780Z,100418.69
2018-12-19T09:46:28.971Z,100420.56
2018-12-19T09:51:32.258Z,100410.99
2018-12-19T09:56:35.496Z,100407.47
2018-12-19T10:01:39.759Z,100396.95
2018-12-19T10:06:42.922Z,100398.45
2018-12-19T10:11:46.082Z,100393.42
2018-12-19T10:16:49.250Z,100388.05
2018-12-19T10:21:52.458Z,100380.16
2018-12-19T10:26:55.666Z,100383.15
2018-12-19T10:31:58.852Z,100367.73
2018-12-19T10:37:02.096Z,100369.20
2018-12-19T10:42:05.272Z,100359.02
2018-12-19T10:47:08.448Z,100358.70
2018-12-19T10:52:11.623Z,100359.64
2018-12-19T10:57:14.778Z,100348.13
2018-12-19T11:02:18.028Z,100355.39
2018-12-19T11:07:21.456Z,100351.70
2018-12-19T11:12:25.936Z,100354.25
2018-12-19T11:17:29.128Z,100349.66
2018-12-19T11:22:33.121Z,100345.94
2018-12-19T11:27:36.409Z,100346.20
2018-12-19T11:32:39.573Z,100333.16
2018-12-19T11:37:42.737Z,100333.92
2018-12-19T11:42:45.917Z,100328.28
2018-12-19T11:47:49.112Z,100324.22
2018-12-19T11:52:52.274Z,100307.98
2018-12-19T12:02:57.022Z,100293.58
2018-12-19T12:08:00.280Z,100298.27
2018-12-19T12:13:03.521Z,100300.68
2018-12-19T12:18:06.722Z,100294.30
2018-12-19T12:23:09.908Z,100293.72
2018-12-19T12:28:13.421Z,100294.55
2018-12-19T12:33:16.688Z,100286.57
2018-12-19T12:38:20.001Z,100285.44
2018-12-19T12:43:23.137Z,100284.37
2018-12-19T12:48:26.292Z,100285.59
2018-12-19T12:53:29.446Z,100287.25
2018-12-19T12:58:32.618Z,100284.13
2018-12-19T13:03:35.757Z,100284.02
2018-12-19T13:08:38.908Z,100286.97
2018-12-19T13:13:42.045Z,100292.13
2018-12-19T13:18:45.215Z,100296.34
2018-12-19T13:23:49.056Z,100287.95
2018-12-19T13:28:52.238Z,100294.16
2018-12-19T13:33:55.425Z,100299.69
2018-12-19T13:38:58.559Z,100301.72
2018-12-19T13:44:01.757Z,100299.30
2018-12-19T13:49:05.061Z,100301.66
2018-12-19T13:54:08.188Z,100300.11
2018-12-19T13:59:11.353Z,100310.43
2018-12-19T14:04:14.566Z,100307.52
2018-12-19T14:09:17.790Z,100298.97
2018-12-19T14:14:20.992Z,100290.44
2018-12-19T14:19:24.144Z,100299.59
2018-12-19T14:24:27.309Z,100304.78
2018-12-19T14:29:30.474Z,100305.06
2018-12-19T14:34:33.638Z,100303.98
2018-12-19T14:39:36.834Z,100305.25
2018-12-19T14:44:40.037Z,100302.03
2018-12-19T14:49:43.219Z,100304.58
2018-12-19T14:54:46.391Z,100299.41
2018-12-19T14:59:49.561Z,100295.04
2018-12-19T15:04:52.745Z,100299.41
2018-12-19T15:09:55.894Z,100289.19
2018-12-19T15:14:59.107Z,100291.37
2018-12-19T15:20:02.260Z,100287.27
2018-12-19T15:25:06.322Z,100287.57
2018-12-19T15:30:09.608Z,100289.66
2018-12-19T15:35:12.892Z,100279.09
2018-12-19T15:40:16.065Z,100276.05
2018-12-19T15:45:19.244Z,100278.05
2018-12-19T15:50:22.428Z,100273.26
2018-12-19T15:55:25.605Z,100261.85
2018-12-19T16:00:28.994Z,100264.05
2018-12-19T16:05:32.241Z,100259.05
2018-12-19T16:10:35.480Z,100254.97
2018-12-19T16:15:38.667Z,100249.19
2018-12-19T16:20:41.853Z,100244.06
2018-12-19T16:25:45.060Z,100239.73
2018-12-19T16:30:48.238Z,100240.33
2018-12-19T16:35:51.442Z,100230.58
2018-12-19T16:40:54.620Z,100226.61
2018-12-19T16:45:57.772Z,100226.41
2018-12-19T16:51:00.933Z,100220.61
2018-12-19T16:56:04.112Z,100223.02
2018-12-19T17:01:07.512Z,100221.55
2018-12-19T17:06:10.761Z,100222.96
2018-12-19T17:11:14.028Z,100217.22
2018-12-19T17:16:17.276Z,100220.95
2018-12-19T17:21:20.436Z,100226.48
2018-12-19T17:26:23.585Z,100228.18
2018-12-19T17:31:26.780Z,100227.31
2018-12-19T17:36:29.960Z,100226.70
2018-12-19T17:41:33.134Z,100233.27
2018-12-19T17:46:36.332Z,100258.20
2018-12-19T17:51:39.603Z,100236.73
2018-12-19T17:56:42.781Z,100224.55
2018-12-19T18:01:46.100Z,100213.97
2018-12-19T18:06:49.324Z,100216.61
2018-12-19T18:11:52.508Z,100216.22
2018-12-19T18:16:55.705Z,100217.77
2018-12-19T18:21:58.876Z,100229.39
2018-12-19T18:27:02.070Z,100236.23
2018-12-19T18:32:05.277Z,100234.53
2018-12-19T18:37:08.511Z,100223.47
2018-12-19T18:42:11.734Z,100216.98
2018-12-19T18:47:14.901Z,100226.33
2018-12-19T18:52:18.171Z,100244.64
2018-12-19T18:57:21.351Z,100234.31
2018-12-19T19:02:24.572Z,100244.03
2018-12-19T19:07:27.853Z,100254.55
2018-12-19T19:12:31.142Z,100246.98
2018-12-19T19:17:34.332Z,100238.05
2018-12-19T19:22:37.535Z,100244.89
2018-12-19T19:27:40.692Z,100240.95
2018-12-19T19:32:43.864Z,100240.34
2018-12-19T19:37:47.025Z,100242.98
2018-12-19T19:42:50.304Z,100239.86
2018-12-19T19:47:53.473Z,100236.14
2018-12-19T19:52:56.654Z,100240.08
2018-12-19T19:58:02.945Z,100245.55
2018-12-19T20:03:06.097Z,100241.61
2018-12-19T20:08:09.253Z,100236.55
2018-12-19T20:13:15.240Z,100238.92
2018-12-19T20:23:34.695Z,100235.84
2018-12-19T20:28:38.879Z,100234.60
2018-12-19T20:33:42.353Z,100225.73
2018-12-19T20:44:15.013Z,100220.88
2018-12-19T20:49:19.897Z,100227.42
2018-12-19T20:54:23.419Z,100236.61
2018-12-19T20:59:28.823Z,100222.03
2018-12-19T21:04:33.741Z,100222.09
2018-12-19T21:09:36.913Z,100217.83
2018-12-19T21:14:41.373Z,100211.90
2018-12-19T21:19:46.597Z,100209.30
2018-12-19T21:24:49.782Z,100203.45
2018-12-19T21:29:55.043Z,100197.03
2018-12-19T21:34:59.142Z,100195.12
2018-12-19T21:40:10.233Z,100194.91
2018-12-19T21:45:13.980Z,100186.84
2018-12-19T21:50:27.416Z,100183.06
2018-12-19T21:55:32.733Z,100184.61
2018-12-19T22:00:41.483Z,100179.66
2018-12-19T22:05:48.709Z,100187.28
2018-12-19T22:10:52.224Z,100191.45
2018-12-19T22:15:55.636Z,100192.66
2018-12-19T22:20:58.878Z,100192.50
2018-12-19T22:26:02.481Z,100198.30
2018-12-19T22:31:05.829Z,100195.56
2018-12-19T22:36:10.425Z,100201.75
2018-12-19T22:41:13.841Z,100200.66
2018-12-19T22:46:17.823Z,100195.71
2018-12-19T22:51:21.001Z,100205.16
2018-12-19T22:56:24.181Z,100197.66
2018-12-19T23:01:34.327Z,100197.27
2018-12-19T23:06:37.658Z,100197.97
2018-12-19T23:11:40.901Z,100188.66
2018-12-19T23:16:45.196Z,100200.01
2018-12-19T23:21:49.303Z,100199.72
2018-12-19T23:26:55.591Z,100198.23
2018-12-19T23:32:02.512Z,100195.00
2018-12-19T23:37:06.458Z,100196.55
2018-12-19T23:42:10.398Z,100190.69
2018-12-19T23:47:14.523Z,100188.38
2018-12-19T23:52:18.805Z,100192.05
2018-12-19T23:57:23.829Z,100187.88
